createdAt,value
2017-12-21T00:01:16.108Z,16.63
2017-12-21T00:03:43.773Z,16.37
2017-12-21T00:06:12.185Z,15.37
2017-12-21T00:08:39.881Z,21.10
2017-12-21T00:11:07.562Z,20.67
2017-12-21T00:13:35.245Z,20.13
2017-12-21T00:16:02.894Z,25.33
2017-12-21T00:18:30.581Z,17.70
2017-12-21T00:20:58.232Z,23.38
2017-12-21T00:23:25.853Z,19.20
2017-12-21T00:25:53.512Z,18.03
2017-12-21T00:28:21.347Z,24.37
2017-12-21T00:30:49.011Z,16.73
2017-12-21T00:33:16.630Z,21.80
2017-12-21T00:35:44.290Z,18.83
2017-12-21T00:38:12.994Z,21.77
2017-12-21T00:40:40.674Z,20.97
2017-12-21T00:43:08.347Z,15.27
2017-12-21T00:45:36.196Z,17.23
2017-12-21T00:48:03.853Z,16.77
2017-12-21T00:50:31.470Z,19.33
2017-12-21T00:52:59.129Z,17.27
2017-12-21T00:55:26.754Z,17.43
2017-12-21T00:57:54.370Z,17.23
2017-12-21T01:00:22.188Z,19.83
2017-12-21T01:02:49.806Z,14.07
2017-12-21T01:05:17.429Z,14.02
2017-12-21T01:07:45.174Z,15.80
2017-12-21T01:10:12.937Z,17.33
2017-12-21T01:12:41.318Z,13.70
2017-12-21T01:15:08.955Z,16.80
2017-12-21T01:17:36.619Z,13.50
2017-12-21T01:20:04.265Z,12.48
2017-12-21T01:22:31.921Z,14.20
2017-12-21T01:24:59.573Z,14.43
2017-12-21T01:27:27.256Z,14.32
2017-12-21T01:29:54.873Z,12.35
2017-12-21T01:32:22.545Z,12.63
2017-12-21T01:34:50.259Z,13.05
2017-12-21T01:37:17.918Z,14.70
2017-12-21T01:39:45.621Z,10.75
2017-12-21T01:42:14.058Z,14.02
2017-12-21T01:44:41.935Z,12.13
2017-12-21T01:47:09.549Z,14.33
2017-12-21T01:49:37.210Z,14.65
2017-12-21T01:52:04.910Z,13.47
2017-12-21T01:54:32.835Z,13.97
2017-12-21T01:57:01.082Z,14.80
2017-12-21T01:59:29.503Z,14.53
2017-12-21T02:01:57.207Z,15.37
2017-12-21T02:04:24.829Z,11.10
2017-12-21T02:06:52.531Z,16.10
2017-12-21T02:09:20.470Z,13.40
2017-12-21T02:11:48.141Z,15.07
2017-12-21T02:14:15.826Z,16.27
2017-12-21T02:16:43.504Z,14.13
2017-12-21T02:19:11.166Z,14.37
2017-12-21T02:21:38.830Z,11.73
2017-12-21T02:24:06.531Z,14.32
2017-12-21T02:26:34.409Z,15.70
2017-12-21T02:29:02.113Z,11.30
2017-12-21T02:31:29.812Z,15.90
2017-12-21T02:33:57.450Z,11.45
2017-12-21T02:36:25.101Z,15.90
2017-12-21T02:38:52.996Z,10.67
2017-12-21T02:41:20.721Z,12.83
2017-12-21T02:43:48.429Z,13.50
2017-12-21T02:46:16.127Z,13.63
2017-12-21T02:48:43.786Z,10.10
2017-12-21T02:51:12.269Z,9.87
2017-12-21T02:53:40.698Z,12.80
2017-12-21T02:56:08.360Z,12.55
2017-12-21T02:58:36.086Z,9.90
2017-12-21T03:01:03.746Z,11.00
2017-12-21T03:03:31.442Z,11.80
2017-12-21T03:05:59.311Z,12.37
2017-12-21T03:08:27.077Z,9.23
2017-12-21T03:10:54.780Z,10.40
2017-12-21T03:13:23.210Z,9.57
2017-12-21T03:15:50.922Z,8.30
2017-12-21T03:18:19.354Z,8.98
2017-12-21T03:20:47.118Z,7.60
2017-12-21T03:23:14.798Z,8.73
2017-12-21T03:25:42.466Z,11.20
2017-12-21T03:28:10.096Z,8.47
2017-12-21T03:30:38.593Z,7.18
2017-12-21T03:33:06.242Z,12.13
2017-12-21T03:35:33.910Z,8.95
2017-12-21T03:38:01.741Z,8.63
2017-12-21T03:40:29.625Z,9.30
2017-12-21T03:42:57.262Z,7.80
2017-12-21T03:45:25.071Z,7.15
2017-12-21T03:47:52.730Z,10.93
2017-12-21T03:50:21.039Z,9.45
2017-12-21T03:52:48.669Z,9.55
2017-12-21T03:55:16.362Z,10.07
2017-12-21T03:57:44.791Z,9.43
2017-12-21T04:00:12.473Z,6.83
2017-12-21T04:02:40.114Z,7.97
2017-12-21T04:05:07.780Z,8.80
2017-12-21T04:07:35.433Z,9.30
2017-12-21T04:10:03.050Z,7.23
2017-12-21T04:12:30.718Z,8.35
2017-12-21T04:14:58.982Z,9.80
2017-12-21T04:17:26.666Z,9.82
2017-12-21T04:19:54.279Z,9.53
2017-12-21T04:22:22.107Z,9.10
2017-12-21T04:24:49.890Z,8.00
2017-12-21T04:27:17.541Z,11.50
2017-12-21T04:29:45.166Z,12.40
2017-12-21T04:32:12.940Z,10.33
2017-12-21T04:34:40.589Z,10.80
2017-12-21T04:37:08.294Z,12.50
2017-12-21T04:39:35.965Z,10.77
2017-12-21T04:42:03.665Z,13.30
2017-12-21T04:44:32.109Z,10.87
2017-12-21T04:46:59.746Z,12.73
2017-12-21T04:49:27.442Z,18.97
2017-12-21T04:51:55.900Z,14.03
2017-12-21T04:54:23.861Z,19.13
2017-12-21T04:56:51.509Z,12.60
2017-12-21T04:59:19.233Z,15.13
2017-12-21T05:01:46.942Z,14.38
2017-12-21T05:04:19.359Z,17.60
2017-12-21T05:06:47.385Z,16.20
2017-12-21T05:09:16.665Z,15.50
2017-12-21T05:11:44.996Z,15.43
2017-12-21T05:14:13.647Z,18.20
2017-12-21T05:16:41.317Z,16.40
2017-12-21T05:19:08.989Z,17.55
2017-12-21T05:21:37.221Z,16.33
2017-12-21T05:24:05.088Z,20.02
2017-12-21T05:26:32.761Z,21.63
2017-12-21T05:29:00.836Z,18.90
2017-12-21T05:31:29.242Z,18.13
2017-12-21T05:33:57.243Z,19.27
2017-12-21T05:36:24.870Z,21.62
2017-12-21T05:38:53.310Z,21.75
2017-12-21T05:41:20.929Z,23.45
2017-12-21T05:43:48.826Z,23.17
2017-12-21T05:46:17.497Z,25.17
2017-12-21T05:48:45.114Z,21.77
2017-12-21T05:51:13.558Z,25.20
2017-12-21T05:53:41.254Z,28.17
2017-12-21T05:56:09.090Z,21.60
2017-12-21T05:58:36.854Z,23.70
2017-12-21T06:01:04.509Z,24.00
2017-12-21T06:03:32.154Z,24.20
2017-12-21T06:05:59.826Z,21.10
2017-12-21T06:08:27.684Z,25.10
2017-12-21T06:10:55.305Z,19.10
2017-12-21T06:13:22.958Z,22.50
2017-12-21T06:15:50.888Z,19.33
2017-12-21T06:18:18.565Z,19.77
2017-12-21T06:20:47.119Z,20.30
2017-12-21T06:23:15.598Z,21.57
2017-12-21T06:25:43.226Z,20.57
2017-12-21T06:28:10.928Z,20.40
2017-12-21T06:30:38.780Z,24.07
2017-12-21T06:33:06.411Z,22.53
2017-12-21T06:35:34.073Z,16.85
2017-12-21T06:38:01.756Z,22.40
2017-12-21T06:40:29.370Z,18.00
2017-12-21T06:42:57.006Z,20.77
2017-12-21T06:45:24.671Z,18.83
2017-12-21T06:47:52.325Z,20.47
2017-12-21T06:50:25.769Z,20.12
2017-12-21T06:52:53.470Z,23.77
2017-12-21T06:55:21.128Z,21.12
2017-12-21T06:57:49.295Z,23.20
2017-12-21T07:00:17.604Z,17.60
2017-12-21T07:02:45.990Z,21.50
2017-12-21T07:05:13.674Z,20.10
2017-12-21T07:07:41.595Z,18.23
2017-12-21T07:10:09.284Z,17.58
2017-12-21T07:12:36.945Z,21.60
2017-12-21T07:15:04.577Z,24.10
2017-12-21T07:17:32.330Z,20.05
2017-12-21T07:19:59.981Z,19.77
2017-12-21T07:22:27.597Z,19.13
2017-12-21T07:24:55.312Z,18.27
2017-12-21T07:27:22.979Z,19.80
2017-12-21T07:29:50.593Z,19.83
2017-12-21T07:32:19.214Z,18.75
2017-12-21T07:34:47.404Z,21.30
2017-12-21T07:37:15.038Z,18.77
2017-12-21T07:39:42.698Z,18.33
2017-12-21T07:42:10.926Z,14.32
2017-12-21T07:44:38.601Z,16.17
2017-12-21T07:47:06.409Z,17.77
2017-12-21T07:49:34.177Z,17.00
2017-12-21T07:52:01.794Z,20.13
2017-12-21T07:54:29.418Z,18.07
2017-12-21T07:56:58.070Z,15.20
2017-12-21T07:59:25.721Z,14.37
2017-12-21T08:01:54.551Z,15.17
2017-12-21T08:04:23.287Z,14.38
2017-12-21T08:06:50.944Z,16.97
2017-12-21T08:09:18.576Z,11.60
2017-12-21T08:11:46.253Z,13.60
2017-12-21T08:14:13.871Z,10.47
2017-12-21T08:16:41.529Z,10.67
2017-12-21T08:19:09.257Z,10.73
2017-12-21T08:21:36.866Z,9.60
2017-12-21T08:24:04.529Z,10.00
2017-12-21T08:26:32.162Z,11.03
2017-12-21T08:28:59.849Z,11.30
2017-12-21T08:31:27.676Z,8.63
2017-12-21T08:33:55.594Z,10.73
2017-12-21T08:36:23.466Z,9.85
2017-12-21T08:38:51.079Z,8.37
2017-12-21T08:41:18.743Z,7.50
2017-12-21T08:43:46.365Z,5.53
2017-12-21T08:46:14.252Z,4.97
2017-12-21T08:48:41.890Z,6.73
2017-12-21T08:51:09.542Z,6.00
2017-12-21T08:53:37.354Z,5.37
2017-12-21T08:56:06.003Z,6.40
2017-12-21T08:58:33.873Z,6.73
2017-12-21T09:01:01.491Z,7.00
2017-12-21T09:03:29.460Z,6.60
2017-12-21T09:05:57.125Z,6.80
2017-12-21T09:08:24.787Z,7.87
2017-12-21T09:10:52.437Z,7.12
2017-12-21T09:13:20.093Z,7.93
2017-12-21T09:15:47.858Z,7.67
2017-12-21T09:18:15.455Z,6.95
2017-12-21T09:20:43.114Z,7.60
2017-12-21T09:23:10.757Z,7.05
2017-12-21T09:25:38.442Z,5.25
2017-12-21T09:28:06.301Z,6.90
2017-12-21T09:30:33.990Z,8.40
2017-12-21T09:33:01.642Z,5.07
2017-12-21T09:35:29.286Z,8.67
2017-12-21T09:37:57.046Z,7.80
2017-12-21T09:40:24.665Z,7.62
2017-12-21T09:42:52.572Z,5.83
2017-12-21T09:45:20.815Z,6.55
2017-12-21T09:47:48.474Z,6.45
2017-12-21T09:50:16.385Z,7.07
2017-12-21T09:52:44.239Z,5.97
2017-12-21T09:55:11.915Z,4.72
2017-12-21T09:57:39.540Z,5.87
2017-12-21T10:00:07.678Z,4.43
2017-12-21T10:02:35.290Z,5.30
2017-12-21T10:05:03.701Z,4.37
2017-12-21T10:07:32.086Z,7.40
2017-12-21T10:10:00.026Z,3.20
2017-12-21T10:12:27.977Z,4.93
2017-12-21T10:14:55.581Z,5.45
2017-12-21T10:17:23.229Z,6.27
2017-12-21T10:19:50.894Z,4.63
2017-12-21T10:22:18.523Z,6.10
2017-12-21T10:24:46.205Z,5.27
2017-12-21T10:27:14.605Z,4.73
2017-12-21T10:29:42.258Z,4.00
2017-12-21T10:32:10.676Z,5.68
2017-12-21T10:34:38.297Z,7.90
2017-12-21T10:37:06.032Z,5.97
2017-12-21T10:39:33.652Z,4.70
2017-12-21T10:42:01.937Z,6.03
2017-12-21T10:44:29.735Z,4.37
2017-12-21T10:46:57.386Z,5.80
2017-12-21T10:49:25.018Z,4.00
2017-12-21T10:51:52.682Z,4.30
2017-12-21T10:54:20.562Z,4.27
2017-12-21T10:56:48.166Z,4.00
2017-12-21T10:59:15.827Z,3.90
2017-12-21T11:01:43.444Z,6.53
2017-12-21T11:04:11.305Z,5.57
2017-12-21T11:06:38.934Z,6.40
2017-12-21T11:09:06.563Z,5.68
2017-12-21T11:11:35.002Z,5.80
2017-12-21T11:14:02.694Z,5.30
2017-12-21T11:16:30.340Z,3.90
2017-12-21T11:18:58.050Z,7.47
2017-12-21T11:21:25.865Z,6.77
2017-12-21T11:23:53.525Z,6.20
2017-12-21T11:26:21.242Z,5.07
2017-12-21T11:28:49.568Z,5.50
2017-12-21T11:31:17.799Z,4.20
2017-12-21T11:33:45.599Z,6.67
2017-12-21T11:36:13.226Z,10.03
2017-12-21T11:38:40.915Z,5.35
2017-12-21T11:41:08.577Z,4.03
2017-12-21T11:43:36.235Z,6.23
2017-12-21T11:46:04.813Z,3.33
2017-12-21T11:48:32.444Z,5.55
2017-12-21T11:51:02.299Z,7.25
2017-12-21T11:53:29.982Z,8.18
2017-12-21T11:56:05.167Z,6.12
2017-12-21T11:58:33.710Z,5.80
2017-12-21T12:01:02.954Z,3.53
2017-12-21T12:03:30.657Z,10.07
2017-12-21T12:05:58.325Z,3.33
2017-12-21T12:08:26.027Z,7.57
2017-12-21T12:10:53.641Z,5.83
2017-12-21T12:13:21.426Z,3.90
2017-12-21T12:15:49.104Z,5.40
2017-12-21T12:18:16.759Z,9.77
2017-12-21T12:20:44.377Z,10.70
2017-12-21T12:23:12.045Z,4.40
2017-12-21T12:25:39.986Z,11.83
2017-12-21T12:28:08.297Z,9.13
2017-12-21T12:30:36.126Z,5.80
2017-12-21T12:33:04.509Z,6.35
2017-12-21T12:35:32.137Z,9.57
2017-12-21T12:37:59.808Z,4.93
2017-12-21T12:40:27.461Z,12.47
2017-12-21T12:42:55.376Z,8.43
2017-12-21T12:45:23.077Z,5.82
2017-12-21T12:47:50.770Z,8.03
2017-12-21T12:50:18.452Z,6.03
2017-12-21T12:52:46.300Z,7.55
2017-12-21T12:55:13.957Z,6.80
2017-12-21T12:57:41.831Z,7.43
2017-12-21T13:00:09.674Z,8.73
2017-12-21T13:02:38.002Z,5.27
2017-12-21T13:05:06.431Z,8.50
2017-12-21T13:07:34.142Z,10.57
2017-12-21T13:10:02.536Z,9.57
2017-12-21T13:12:30.218Z,9.70
2017-12-21T13:14:59.269Z,7.57
2017-12-21T13:17:27.647Z,13.37
2017-12-21T13:19:56.082Z,7.13
2017-12-21T13:22:23.755Z,9.63
2017-12-21T13:24:51.373Z,11.93
2017-12-21T13:27:19.066Z,6.10
2017-12-21T13:29:47.416Z,4.43
2017-12-21T13:32:15.250Z,9.10
2017-12-21T13:34:42.927Z,9.53
2017-12-21T13:37:11.357Z,6.00
2017-12-21T13:39:38.974Z,7.13
2017-12-21T13:42:06.655Z,8.35
2017-12-21T13:44:34.870Z,10.57
2017-12-21T13:47:02.486Z,7.82
2017-12-21T13:49:30.102Z,12.02
2017-12-21T13:51:58.533Z,10.33
2017-12-21T13:54:26.168Z,7.75
2017-12-21T13:56:53.970Z,10.95
2017-12-21T13:59:22.235Z,8.00
2017-12-21T14:01:49.882Z,6.67
2017-12-21T14:04:18.234Z,10.17
2017-12-21T14:06:45.862Z,14.67
2017-12-21T14:09:13.527Z,7.60
2017-12-21T14:11:43.152Z,6.80
2017-12-21T14:14:11.248Z,7.97
2017-12-21T14:16:38.899Z,10.83
2017-12-21T14:19:06.511Z,6.60
2017-12-21T14:21:34.161Z,12.65
2017-12-21T14:24:01.823Z,11.17
2017-12-21T14:26:29.671Z,13.10
2017-12-21T14:28:57.419Z,7.45
2017-12-21T14:31:25.038Z,10.30
2017-12-21T14:33:52.857Z,6.83
2017-12-21T14:36:20.718Z,7.63
2017-12-21T14:38:49.173Z,6.55
2017-12-21T14:41:17.165Z,9.33
2017-12-21T14:43:44.929Z,4.60
2017-12-21T14:46:13.522Z,6.83
2017-12-21T14:48:41.287Z,9.15
2017-12-21T14:51:09.052Z,6.07
2017-12-21T14:53:36.899Z,11.13
2017-12-21T14:56:05.130Z,12.43
2017-12-21T14:58:32.737Z,7.90
2017-12-21T15:01:00.738Z,3.53
2017-12-21T15:03:28.362Z,6.27
2017-12-21T15:05:55.985Z,5.47
2017-12-21T15:08:23.819Z,4.20
2017-12-21T15:10:51.549Z,3.67
2017-12-21T15:13:19.174Z,3.90
2017-12-21T15:15:47.076Z,3.70
2017-12-21T15:18:15.062Z,4.70
2017-12-21T15:20:42.816Z,6.43
2017-12-21T15:23:10.494Z,10.93
2017-12-21T15:25:38.354Z,3.00
2017-12-21T15:28:06.305Z,5.50
2017-12-21T15:30:33.981Z,3.50
2017-12-21T15:33:01.593Z,8.95
2017-12-21T15:35:29.482Z,3.63
2017-12-21T15:37:57.140Z,5.37
2017-12-21T15:40:24.750Z,7.13
2017-12-21T15:42:52.422Z,5.50
2017-12-21T15:45:20.468Z,4.20
2017-12-21T15:47:48.131Z,5.05
2017-12-21T15:50:16.061Z,4.72
2017-12-21T15:52:43.693Z,6.57
2017-12-21T15:55:11.978Z,7.28
2017-12-21T15:57:39.942Z,6.72
2017-12-21T16:00:07.550Z,6.47
2017-12-21T16:02:35.166Z,8.40
2017-12-21T16:05:02.946Z,8.87
2017-12-21T16:07:30.605Z,9.70
2017-12-21T16:09:58.383Z,8.40
2017-12-21T16:12:26.027Z,9.00
2017-12-21T16:14:53.908Z,10.50
2017-12-21T16:17:21.537Z,10.38
2017-12-21T16:19:49.203Z,11.90
2017-12-21T16:22:16.826Z,10.00
2017-12-21T16:24:44.490Z,10.93
2017-12-21T16:27:12.150Z,7.37
2017-12-21T16:29:40.572Z,8.13
2017-12-21T16:32:08.186Z,10.40
2017-12-21T16:34:36.020Z,10.80
2017-12-21T16:37:04.450Z,11.67
2017-12-21T16:39:32.177Z,7.40
2017-12-21T16:42:00.614Z,12.20
2017-12-21T16:44:28.293Z,10.67
2017-12-21T16:46:57.615Z,8.60
2017-12-21T16:49:26.010Z,8.47
2017-12-21T16:51:54.436Z,9.65
2017-12-21T16:54:22.194Z,9.40
2017-12-21T16:56:49.872Z,9.80
2017-12-21T16:59:17.842Z,18.15
2017-12-21T17:01:45.461Z,10.80
2017-12-21T17:04:13.123Z,12.80
2017-12-21T17:06:40.770Z,8.07
2017-12-21T17:09:08.430Z,14.23
2017-12-21T17:11:36.111Z,9.25
2017-12-21T17:14:04.605Z,8.70
2017-12-21T17:16:32.261Z,7.00
2017-12-21T17:19:00.574Z,9.80
2017-12-21T17:21:28.547Z,11.53
2017-12-21T17:23:56.208Z,13.30
2017-12-21T17:26:24.643Z,9.97
2017-12-21T17:28:52.780Z,11.10
2017-12-21T17:31:20.457Z,7.83
2017-12-21T17:33:48.101Z,9.10
2017-12-21T17:36:15.775Z,14.98
2017-12-21T17:38:43.677Z,13.57
2017-12-21T17:41:11.515Z,11.63
2017-12-21T17:43:39.158Z,15.60
2017-12-21T17:46:06.810Z,9.77
2017-12-21T17:48:34.513Z,10.33
2017-12-21T17:51:02.230Z,14.75
2017-12-21T17:53:30.636Z,13.13
2017-12-21T17:55:59.868Z,16.70
2017-12-21T17:58:27.519Z,10.07
2017-12-21T18:00:55.186Z,14.05
2017-12-21T18:03:23.342Z,10.18
2017-12-21T18:05:51.270Z,7.93
2017-12-21T18:08:18.909Z,13.37
2017-12-21T18:10:46.606Z,17.10
2017-12-21T18:13:14.288Z,11.23
2017-12-21T18:15:41.951Z,14.13
2017-12-21T18:18:09.602Z,10.30
2017-12-21T18:20:37.292Z,11.97
2017-12-21T18:23:05.035Z,10.93
2017-12-21T18:25:33.261Z,6.50
2017-12-21T18:28:00.882Z,10.20
2017-12-21T18:30:28.540Z,10.50
2017-12-21T18:32:56.187Z,8.90
2017-12-21T18:35:23.856Z,12.55
2017-12-21T18:37:51.471Z,8.63
2017-12-21T18:40:19.373Z,8.90
2017-12-21T18:42:47.923Z,13.70
2017-12-21T18:45:15.579Z,10.87
2017-12-21T18:47:43.273Z,18.63
2017-12-21T18:50:10.944Z,8.93
2017-12-21T18:52:39.252Z,9.27
2017-12-21T18:55:06.926Z,11.02
2017-12-21T18:57:34.594Z,8.30
2017-12-21T19:00:03.047Z,7.87
2017-12-21T19:02:30.691Z,7.53
2017-12-21T19:04:58.988Z,13.30
2017-12-21T19:07:26.631Z,11.40
2017-12-21T19:09:54.273Z,6.23
2017-12-21T19:12:21.961Z,9.47
2017-12-21T19:14:49.644Z,7.00
2017-12-21T19:17:17.274Z,6.67
2017-12-21T19:19:45.030Z,6.85
2017-12-21T19:22:12.650Z,7.83
2017-12-21T19:24:40.642Z,10.00
2017-12-21T19:27:08.333Z,6.97
2017-12-21T19:29:36.085Z,12.75
2017-12-21T19:32:03.788Z,10.80
2017-12-21T19:34:31.974Z,11.00
2017-12-21T19:36:59.680Z,10.03
2017-12-21T19:39:27.529Z,13.27
2017-12-21T19:41:55.878Z,10.35
2017-12-21T19:44:23.578Z,7.83
2017-12-21T19:46:51.428Z,12.60
2017-12-21T19:49:19.073Z,11.77
2017-12-21T19:51:47.094Z,10.23
2017-12-21T19:54:14.938Z,8.10
2017-12-21T19:56:42.700Z,10.98
2017-12-21T19:59:10.378Z,9.10
2017-12-21T20:01:38.062Z,7.53
2017-12-21T20:04:06.231Z,9.20
2017-12-21T20:06:34.383Z,11.48
2017-12-21T20:09:01.998Z,12.98
2017-12-21T20:11:29.662Z,10.10
2017-12-21T20:13:57.363Z,12.23
2017-12-21T20:16:25.110Z,8.80
2017-12-21T20:18:52.762Z,11.30
2017-12-21T20:21:20.390Z,11.50
2017-12-21T20:23:48.162Z,11.50
2017-12-21T20:26:16.161Z,11.97
2017-12-21T20:28:43.844Z,13.43
2017-12-21T20:31:11.514Z,11.17
2017-12-21T20:33:39.753Z,8.27
2017-12-21T20:36:07.608Z,10.07
2017-12-21T20:38:40.127Z,14.93
2017-12-21T20:41:11.187Z,14.30
2017-12-21T20:43:39.801Z,19.70
2017-12-21T20:46:08.390Z,16.73
2017-12-21T20:48:36.057Z,17.63
2017-12-21T20:51:03.938Z,13.87
2017-12-21T20:53:31.623Z,17.90
2017-12-21T20:55:59.454Z,19.35
2017-12-21T20:58:27.343Z,12.20
2017-12-21T21:00:55.026Z,18.00
2017-12-21T21:03:22.683Z,15.33
2017-12-21T21:05:50.503Z,11.85
2017-12-21T21:08:18.154Z,14.32
2017-12-21T21:10:45.885Z,17.50
2017-12-21T21:13:13.517Z,17.80
2017-12-21T21:15:42.670Z,20.12
2017-12-21T21:18:10.549Z,17.45
2017-12-21T21:20:38.653Z,22.40
2017-12-21T21:23:07.098Z,21.70
2017-12-21T21:25:35.065Z,21.30
2017-12-21T21:28:03.363Z,18.70
2017-12-21T21:30:31.044Z,22.50
2017-12-21T21:32:58.736Z,24.63
2017-12-21T21:35:26.422Z,21.02
2017-12-21T21:37:54.102Z,23.90
2017-12-21T21:40:22.038Z,19.83
2017-12-21T21:42:49.709Z,22.40
2017-12-21T21:45:17.370Z,22.05
2017-12-21T21:47:45.021Z,18.43
2017-12-21T21:50:12.695Z,32.90
2017-12-21T21:52:40.354Z,20.77
2017-12-21T21:55:08.218Z,22.33
2017-12-21T21:57:36.927Z,25.55
2017-12-21T22:00:05.596Z,22.48
2017-12-21T22:02:33.236Z,28.10
2017-12-21T22:05:00.869Z,25.23
2017-12-21T22:07:28.912Z,25.92
2017-12-21T22:09:57.406Z,33.20
2017-12-21T22:12:25.113Z,29.90
2017-12-21T22:14:52.796Z,28.57
2017-12-21T22:17:20.486Z,32.77
2017-12-21T22:19:48.185Z,31.23
2017-12-21T22:22:15.813Z,33.37
2017-12-21T22:24:43.447Z,30.65
2017-12-21T22:27:11.132Z,31.43
2017-12-21T22:29:38.826Z,32.47
2017-12-21T22:32:06.518Z,26.17
2017-12-21T22:34:34.203Z,34.93
2017-12-21T22:37:02.730Z,26.20
2017-12-21T22:39:30.365Z,27.55
2017-12-21T22:41:58.068Z,29.63
2017-12-21T22:44:25.686Z,36.50
2017-12-21T22:46:53.329Z,34.60
2017-12-21T22:49:21.852Z,27.83
2017-12-21T22:51:49.491Z,29.00
2017-12-21T22:54:17.181Z,30.30
2017-12-21T22:56:45.058Z,28.83
2017-12-21T22:59:12.685Z,32.80
2017-12-21T23:01:40.586Z,34.23
2017-12-21T23:04:08.277Z,34.37
2017-12-21T23:06:35.901Z,35.50
2017-12-21T23:09:03.622Z,32.88
2017-12-21T23:11:31.305Z,33.10
2017-12-21T23:13:58.976Z,34.87
2017-12-21T23:16:27.434Z,35.30
2017-12-21T23:18:55.642Z,31.30
2017-12-21T23:21:23.593Z,31.00
2017-12-21T23:23:51.293Z,32.10
2017-12-21T23:26:18.934Z,30.57
2017-12-21T23:28:46.690Z,36.20
2017-12-21T23:31:14.373Z,32.35
2017-12-21T23:33:42.026Z,32.27
2017-12-21T23:36:10.062Z,30.97
2017-12-21T23:38:37.708Z,39.10
2017-12-21T23:41:05.508Z,27.60
2017-12-21T23:43:33.146Z,34.57
2017-12-21T23:46:01.066Z,27.83
2017-12-21T23:48:29.459Z,22.60
2017-12-21T23:50:58.153Z,31.47
2017-12-21T23:53:26.961Z,32.43
2017-12-21T23:55:54.854Z,30.05
2017-12-21T23:58:22.509Z,36.13
